Station Historical Data
Daily Summary for June 15, 2017 Units:  Both    English   Metric
« Previous Day
Next Day »
Daily Weekly Monthly Yearly Custom
  High: Low: Average:
Temperature: 82.4 °F /  28 °C 61.5 °F /  16.4 °C 71.1 °F /  21.7 °C
Dew Point: 71.1 °F /  21.7 °C 34.8 °F /  1.6 °C 58.7 °F /  14.8 °C
Humidity: 88% 35% 66%
Wind Speed: 9.0mph /  14.5km/h - 2.8mph /  4.5km/h
Wind Gust: 14.0mph /  22.5km/h - -
Wind- - South
Pressure: 29.98 in /  1015.1 hPa 29.77 in /  1008 hPa -
Precipitation: 0.00 in /  0 mm    
Historical Graphs
 
 
Tabular Data for June 15, 2017
Time Temperature Dew Point Pressure Wind Wind Speed Wind Gust Humidity Rainfall Rate (Hourly)
00:04 63.2 °F /  17.3 °C 38.5 °F /  3.6 °C 29.98in /  1015.1hPa ENE 3.0mph /  4.8km/h 7.0mph /  11.3km/h 40% 0.00in /  0mm
00:09 63.3 °F /  17.4 °C 37.2 °F /  2.9 °C 29.98in /  1015.1hPa ENE 3.0mph /  4.8km/h 7.0mph /  11.3km/h 38% 0.00in /  0mm
00:14 63.3 °F /  17.4 °C 37.2 °F /  2.9 °C 29.97in /  1014.8hPa ENE 3.0mph /  4.8km/h 6.0mph /  9.7km/h 38% 0.00in /  0mm
00:19 63.3 °F /  17.4 °C 37.2 °F /  2.9 °C 29.97in /  1014.8hPa ENE 3.0mph /  4.8km/h 7.0mph /  11.3km/h 38% 0.00in /  0mm
00:24 63.2 °F /  17.3 °C 36.5 °F /  2.5 °C 29.97in /  1014.8hPa ENE 3.0mph /  4.8km/h 7.0mph /  11.3km/h 37% 0.00in /  0mm
00:29 63.3 °F /  17.4 °C 35.9 °F /  2.2 °C 29.97in /  1014.8hPa ENE 2.0mph /  3.2km/h 7.0mph /  11.3km/h 36% 0.00in /  0mm
00:34 63.4 °F /  17.4 °C 35.2 °F /  1.8 °C 29.96in /  1014.4hPa East 2.0mph /  3.2km/h 5.0mph /  8km/h 35% 0.00in /  0mm
00:39 63.4 °F /  17.4 °C 35.2 °F /  1.8 °C 29.96in /  1014.4hPa NE 2.0mph /  3.2km/h 6.0mph /  9.7km/h 35% 0.00in /  0mm
00:44 63.3 °F /  17.4 °C 35.2 °F /  1.8 °C 29.95in /  1014.1hPa East 3.0mph /  4.8km/h 7.0mph /  11.3km/h 35% 0.00in /  0mm
00:49 63.2 °F /  17.3 °C 35.1 °F /  1.7 °C 29.95in /  1014.1hPa ENE 3.0mph /  4.8km/h 6.0mph /  9.7km/h 35% 0.00in /  0mm
00:54 63.1 °F /  17.3 °C 35.0 °F /  1.7 °C 29.95in /  1014.1hPa ENE 3.0mph /  4.8km/h 8.0mph /  12.9km/h 35% 0.00in /  0mm
00:59 63.0 °F /  17.2 °C 34.9 °F /  1.6 °C 29.95in /  1014.1hPa ENE 3.0mph /  4.8km/h 8.0mph /  12.9km/h 35% 0.00in /  0mm
01:04 63.0 °F /  17.2 °C 34.9 °F /  1.6 °C 29.94in /  1013.8hPa East 3.0mph /  4.8km/h 5.0mph /  8km/h 35% 0.00in /  0mm
01:09 62.9 °F /  17.2 °C 34.8 °F /  1.6 °C 29.94in /  1013.8hPa East 2.0mph /  3.2km/h 5.0mph /  8km/h 35% 0.00in /  0mm
01:14 62.9 °F /  17.2 °C 34.8 °F /  1.6 °C 29.94in /  1013.8hPa East 2.0mph /  3.2km/h 7.0mph /  11.3km/h 35% 0.00in /  0mm
01:19 62.7 °F /  17.1 °C 36.0 °F /  2.2 °C 29.93in /  1013.4hPa East 2.0mph /  3.2km/h 7.0mph /  11.3km/h 37% 0.00in /  0mm
01:24 62.7 °F /  17.1 °C 36.0 °F /  2.2 °C 29.93in /  1013.4hPa East 2.0mph /  3.2km/h 7.0mph /  11.3km/h 37% 0.00in /  0mm
01:29 62.7 °F /  17.1 °C 36.7 °F /  2.6 °C 29.93in /  1013.4hPa ENE 2.0mph /  3.2km/h 5.0mph /  8km/h 38% 0.00in /  0mm
01:34 62.5 °F /  16.9 °C 37.2 °F /  2.9 °C 29.93in /  1013.4hPa ENE 2.0mph /  3.2km/h 5.0mph /  8km/h 39% 0.00in /  0mm
01:39 62.4 °F /  16.9 °C 37.7 °F /  3.2 °C 29.93in /  1013.4hPa ENE 3.0mph /  4.8km/h 6.0mph /  9.7km/h 40% 0.00in /  0mm
01:44 62.5 °F /  16.9 °C 37.2 °F /  2.9 °C 29.93in /  1013.4hPa NE 2.0mph /  3.2km/h 6.0mph /  9.7km/h 39% 0.00in /  0mm
01:49 62.5 °F /  16.9 °C 37.8 °F /  3.2 °C 29.93in /  1013.4hPa ENE 3.0mph /  4.8km/h 7.0mph /  11.3km/h 40% 0.00in /  0mm
01:54 62.5 °F /  16.9 °C 38.5 °F /  3.6 °C 29.93in /  1013.4hPa ENE 3.0mph /  4.8km/h 7.0mph /  11.3km/h 41% 0.00in /  0mm
01:59 62.6 °F /  17 °C 39.2 °F /  4 °C 29.92in /  1013.1hPa NE 2.0mph /  3.2km/h 7.0mph /  11.3km/h 42% 0.00in /  0mm
02:04 62.7 °F /  17.1 °C 39.3 °F /  4.1 °C 29.92in /  1013.1hPa ENE 2.0mph /  3.2km/h 7.0mph /  11.3km/h 42% 0.00in /  0mm
02:09 62.6 °F /  17 °C 39.8 °F /  4.3 °C 29.92in /  1013.1hPa ENE 2.0mph /  3.2km/h 7.0mph /  11.3km/h 43% 0.00in /  0mm
02:14 62.6 °F /  17 °C 40.4 °F /  4.7 °C 29.92in /  1013.1hPa ENE 2.0mph /  3.2km/h 4.0mph /  6.4km/h 44% 0.00in /  0mm
02:19 62.6 °F /  17 °C 40.4 °F /  4.7 °C 29.92in /  1013.1hPa ENE 1.0mph /  1.6km/h 4.0mph /  6.4km/h 44% 0.00in /  0mm
02:24 62.6 °F /  17 °C 40.9 °F /  4.9 °C 29.92in /  1013.1hPa ENE 2.0mph /  3.2km/h 4.0mph /  6.4km/h 45% 0.00in /  0mm
02:29 62.5 °F /  16.9 °C 40.9 °F /  4.9 °C 29.92in /  1013.1hPa ENE 1.0mph /  1.6km/h 4.0mph /  6.4km/h 45% 0.00in /  0mm
02:34 62.4 °F /  16.9 °C 40.8 °F /  4.9 °C 29.92in /  1013.1hPa NE 2.0mph /  3.2km/h 4.0mph /  6.4km/h 45% 0.00in /  0mm
02:39 62.4 °F /  16.9 °C 41.9 °F /  5.5 °C 29.92in /  1013.1hPa Calm   1.0mph /  1.6km/h 47% 0.00in /  0mm
02:44 62.3 °F /  16.8 °C 41.8 °F /  5.4 °C 29.91in /  1012.8hPa East 1.0mph /  1.6km/h 4.0mph /  6.4km/h 47% 0.00in /  0mm
02:49 62.3 °F /  16.8 °C 41.8 °F /  5.4 °C 29.91in /  1012.8hPa ENE 2.0mph /  3.2km/h 6.0mph /  9.7km/h 47% 0.00in /  0mm
02:54 62.3 °F /  16.8 °C 41.8 °F /  5.4 °C 29.91in /  1012.8hPa ENE 2.0mph /  3.2km/h 6.0mph /  9.7km/h 47% 0.00in /  0mm
02:59 62.4 °F /  16.9 °C 42.4 °F /  5.8 °C 29.91in /  1012.8hPa ENE 1.0mph /  1.6km/h 4.0mph /  6.4km/h 48% 0.00in /  0mm
03:04 62.4 °F /  16.9 °C 42.4 °F /  5.8 °C 29.91in /  1012.8hPa ENE 1.0mph /  1.6km/h 4.0mph /  6.4km/h 48% 0.00in /  0mm
03:09 62.3 °F /  16.8 °C 42.9 °F /  6.1 °C 29.91in /  1012.8hPa ENE 3.0mph /  4.8km/h 3.0mph /  4.8km/h 49% 0.00in /  0mm
03:14 62.3 °F /  16.8 °C 43.4 °F /  6.3 °C 29.91in /  1012.8hPa NE 2.0mph /  3.2km/h 5.0mph /  8km/h 50% 0.00in /  0mm
03:19 62.4 °F /  16.9 °C 43.5 °F /  6.4 °C 29.91in /  1012.8hPa ENE 3.0mph /  4.8km/h 4.0mph /  6.4km/h 50% 0.00in /  0mm
03:24 62.6 °F /  17 °C 43.7 °F /  6.5 °C 29.90in /  1012.4hPa ENE 2.0mph /  3.2km/h 5.0mph /  8km/h 50% 0.00in /  0mm
03:29 62.6 °F /  17 °C 44.2 °F /  6.8 °C 29.90in /  1012.4hPa ENE 2.0mph /  3.2km/h 5.0mph /  8km/h 51% 0.00in /  0mm
03:34 62.8 °F /  17.1 °C 44.4 °F /  6.9 °C 29.90in /  1012.4hPa ENE 2.0mph /  3.2km/h 8.0mph /  12.9km/h 51% 0.00in /  0mm
03:39 62.9 °F /  17.2 °C 45.0 °F /  7.2 °C 29.90in /  1012.4hPa ENE 2.0mph /  3.2km/h 8.0mph /  12.9km/h 52% 0.00in /  0mm
03:44 63.0 °F /  17.2 °C 45.1 °F /  7.3 °C 29.90in /  1012.4hPa ENE 3.0mph /  4.8km/h 4.0mph /  6.4km/h 52% 0.00in /  0mm
03:49 63.1 °F /  17.3 °C 46.2 °F /  7.9 °C 29.90in /  1012.4hPa NE 2.0mph /  3.2km/h 6.0mph /  9.7km/h 54% 0.00in /  0mm
03:54 63.2 °F /  17.3 °C 46.3 °F /  7.9 °C 29.90in /  1012.4hPa ENE 2.0mph /  3.2km/h 6.0mph /  9.7km/h 54% 0.00in /  0mm
03:59 63.2 °F /  17.3 °C 46.3 °F /  7.9 °C 29.90in /  1012.4hPa NE 1.0mph /  1.6km/h 5.0mph /  8km/h 54% 0.00in /  0mm
04:04 63.3 °F /  17.4 °C 46.9 °F /  8.3 °C 29.90in /  1012.4hPa NE 1.0mph /  1.6km/h 5.0mph /  8km/h 55% 0.00in /  0mm
04:09 63.5 °F /  17.5 °C 47.0 °F /  8.3 °C 29.90in /  1012.4hPa NE 2.0mph /  3.2km/h 3.0mph /  4.8km/h 55% 0.00in /  0mm
04:14 63.6 °F /  17.6 °C 47.1 °F /  8.4 °C 29.90in /  1012.4hPa NE 1.0mph /  1.6km/h 3.0mph /  4.8km/h 55% 0.00in /  0mm
04:19 63.5 °F /  17.5 °C 47.5 °F /  8.6 °C 29.90in /  1012.4hPa Calm   1.0mph /  1.6km/h 56% 0.00in /  0mm
04:24 63.6 °F /  17.6 °C 47.6 °F /  8.7 °C 29.90in /  1012.4hPa Calm   2.0mph /  3.2km/h 56% 0.00in /  0mm
04:29 63.5 °F /  17.5 °C 47.5 °F /  8.6 °C 29.90in /  1012.4hPa Calm   2.0mph /  3.2km/h 56% 0.00in /  0mm
04:34 63.4 °F /  17.4 °C 47.4 °F /  8.6 °C 29.90in /  1012.4hPa Calm   3.0mph /  4.8km/h 56% 0.00in /  0mm
04:39 63.3 °F /  17.4 °C 46.9 °F /  8.3 °C 29.90in /  1012.4hPa NE 2.0mph /  3.2km/h 5.0mph /  8km/h 55% 0.00in /  0mm
04:44 63.1 °F /  17.3 °C 46.7 °F /  8.2 °C 29.90in /  1012.4hPa NE 2.0mph /  3.2km/h 5.0mph /  8km/h 55% 0.00in /  0mm
04:49 62.9 °F /  17.2 °C 46.5 °F /  8.1 °C 29.90in /  1012.4hPa NE 2.0mph /  3.2km/h 6.0mph /  9.7km/h 55% 0.00in /  0mm
04:54 62.5 °F /  16.9 °C 46.6 °F /  8.1 °C 29.90in /  1012.4hPa NE 3.0mph /  4.8km/h 6.0mph /  9.7km/h 56% 0.00in /  0mm
04:59 62.3 °F /  16.8 °C 46.9 °F /  8.3 °C 29.90in /  1012.4hPa NE 2.0mph /  3.2km/h 6.0mph /  9.7km/h 57% 0.00in /  0mm
05:04 62.0 °F /  16.7 °C 46.6 °F /  8.1 °C 29.90in /  1012.4hPa NE 2.0mph /  3.2km/h 5.0mph /  8km/h 57% 0.00in /  0mm
05:09 61.8 °F /  16.6 °C 46.4 °F /  8 °C 29.90in /  1012.4hPa NE 3.0mph /  4.8km/h 5.0mph /  8km/h 57% 0.00in /  0mm
05:14 61.7 °F /  16.5 °C 46.8 °F /  8.2 °C 29.90in /  1012.4hPa NE 3.0mph /  4.8km/h 5.0mph /  8km/h 58% 0.00in /  0mm
05:19 61.6 °F /  16.4 °C 47.1 °F /  8.4 °C 29.90in /  1012.4hPa NE 2.0mph /  3.2km/h 6.0mph /  9.7km/h 59% 0.00in /  0mm
05:24 61.5 °F /  16.4 °C 47.5 °F /  8.6 °C 29.90in /  1012.4hPa NE 2.0mph /  3.2km/h 4.0mph /  6.4km/h 60% 0.00in /  0mm
05:29 61.5 °F /  16.4 °C 47.9 °F /  8.8 °C 29.90in /  1012.4hPa NE 2.0mph /  3.2km/h 4.0mph /  6.4km/h 61% 0.00in /  0mm
05:34 61.6 °F /  16.4 °C 48.0 °F /  8.9 °C 29.89in /  1012.1hPa NE 1.0mph /  1.6km/h 4.0mph /  6.4km/h 61% 0.00in /  0mm
05:39 61.6 °F /  16.4 °C 48.4 °F /  9.1 °C 29.89in /  1012.1hPa NE 1.0mph /  1.6km/h 4.0mph /  6.4km/h 62% 0.00in /  0mm
05:44 61.9 °F /  16.6 °C 48.7 °F /  9.3 °C 29.89in /  1012.1hPa ENE 1.0mph /  1.6km/h 4.0mph /  6.4km/h 62% 0.00in /  0mm
05:49 62.0 °F /  16.7 °C 48.8 °F /  9.3 °C 29.89in /  1012.1hPa ENE 1.0mph /  1.6km/h 4.0mph /  6.4km/h 62% 0.00in /  0mm
05:54 62.1 °F /  16.7 °C 48.9 °F /  9.4 °C 29.89in /  1012.1hPa Calm     62% 0.00in /  0mm
05:59 62.2 °F /  16.8 °C 49.0 °F /  9.4 °C 29.89in /  1012.1hPa Calm     62% 0.00in /  0mm
06:04 62.4 °F /  16.9 °C 49.2 °F /  9.6 °C 29.89in /  1012.1hPa Calm     62% 0.00in /  0mm
06:09 62.6 °F /  17 °C 49.4 °F /  9.7 °C 29.88in /  1011.7hPa Calm   2.0mph /  3.2km/h 62% 0.00in /  0mm
06:14 62.8 °F /  17.1 °C 49.6 °F /  9.8 °C 29.88in /  1011.7hPa ENE 1.0mph /  1.6km/h 3.0mph /  4.8km/h 62% 0.00in /  0mm
06:19 62.9 °F /  17.2 °C 49.7 °F /  9.8 °C 29.88in /  1011.7hPa NE 1.0mph /  1.6km/h 3.0mph /  4.8km/h 62% 0.00in /  0mm
06:24 63.1 °F /  17.3 °C 49.9 °F /  9.9 °C 29.88in /  1011.7hPa East 3.0mph /  4.8km/h 5.0mph /  8km/h 62% 0.00in /  0mm
06:29 63.3 °F /  17.4 °C 50.1 °F /  10.1 °C 29.88in /  1011.7hPa East 2.0mph /  3.2km/h 5.0mph /  8km/h 62% 0.00in /  0mm
06:34 63.5 °F /  17.5 °C 50.7 °F /  10.4 °C 29.88in /  1011.7hPa East 1.0mph /  1.6km/h 5.0mph /  8km/h 63% 0.00in /  0mm
06:39 63.8 °F /  17.7 °C 51.0 °F /  10.6 °C 29.87in /  1011.4hPa East 1.0mph /  1.6km/h 3.0mph /  4.8km/h 63% 0.00in /  0mm
06:44 64.0 °F /  17.8 °C 51.1 °F /  10.6 °C 29.87in /  1011.4hPa East 1.0mph /  1.6km/h 3.0mph /  4.8km/h 63% 0.00in /  0mm
06:49 64.3 °F /  17.9 °C 51.9 °F /  11.1 °C 29.87in /  1011.4hPa East 3.0mph /  4.8km/h 3.0mph /  4.8km/h 64% 0.00in /  0mm
06:54 64.5 °F /  18.1 °C 51.6 °F /  10.9 °C 29.87in /  1011.4hPa Calm   3.0mph /  4.8km/h 63% 0.00in /  0mm
06:59 64.7 °F /  18.2 °C 52.2 °F /  11.2 °C 29.88in /  1011.7hPa Calm   2.0mph /  3.2km/h 64% 0.00in /  0mm
07:04 64.8 °F /  18.2 °C 51.9 °F /  11.1 °C 29.87in /  1011.4hPa East 1.0mph /  1.6km/h 4.0mph /  6.4km/h 63% 0.00in /  0mm
07:09 65.1 °F /  18.4 °C 52.6 °F /  11.4 °C 29.87in /  1011.4hPa ESE 1.0mph /  1.6km/h 4.0mph /  6.4km/h 64% 0.00in /  0mm
07:14 65.1 °F /  18.4 °C 52.6 °F /  11.4 °C 29.87in /  1011.4hPa Calm   3.0mph /  4.8km/h 64% 0.00in /  0mm
07:19 65.3 °F /  18.5 °C 52.8 °F /  11.6 °C 29.88in /  1011.7hPa Calm   2.0mph /  3.2km/h 64% 0.00in /  0mm
07:24 65.5 °F /  18.6 °C 53.4 °F /  11.9 °C 29.88in /  1011.7hPa Calm     65% 0.00in /  0mm
07:29 65.7 °F /  18.7 °C 54.4 °F /  12.4 °C 29.86in /  1011.1hPa NE 4.0mph /  6.4km/h 5.0mph /  8km/h 67% 0.00in /  0mm
07:34 65.6 °F /  18.7 °C 54.8 °F /  12.7 °C 29.86in /  1011.1hPa ENE 2.0mph /  3.2km/h 5.0mph /  8km/h 68% 0.00in /  0mm
07:39 65.9 °F /  18.8 °C 55.0 °F /  12.8 °C 29.87in /  1011.4hPa ENE 2.0mph /  3.2km/h 5.0mph /  8km/h 68% 0.00in /  0mm
07:44 66.3 °F /  19.1 °C 55.4 °F /  13 °C 29.87in /  1011.4hPa ENE 1.0mph /  1.6km/h 3.0mph /  4.8km/h 68% 0.00in /  0mm
07:49 66.8 °F /  19.3 °C 55.5 °F /  13.1 °C 29.87in /  1011.4hPa ENE 1.0mph /  1.6km/h 2.0mph /  3.2km/h 67% 0.00in /  0mm
07:54 66.9 °F /  19.4 °C 55.6 °F /  13.1 °C 29.87in /  1011.4hPa Calm   2.0mph /  3.2km/h 67% 0.00in /  0mm
07:59 67.1 °F /  19.5 °C 55.8 °F /  13.2 °C 29.87in /  1011.4hPa ENE 1.0mph /  1.6km/h 4.0mph /  6.4km/h 67% 0.00in /  0mm
08:04 67.1 °F /  19.5 °C 55.8 °F /  13.2 °C 29.87in /  1011.4hPa ENE 1.0mph /  1.6km/h 4.0mph /  6.4km/h 67% 0.00in /  0mm
08:09 67.3 °F /  19.6 °C 55.5 °F /  13.1 °C 29.87in /  1011.4hPa ENE 1.0mph /  1.6km/h 4.0mph /  6.4km/h 66% 0.00in /  0mm
08:14 67.6 °F /  19.8 °C 55.8 °F /  13.2 °C 29.88in /  1011.7hPa Calm   3.0mph /  4.8km/h 66% 0.00in /  0mm
08:19 68.2 °F /  20.1 °C 56.0 °F /  13.3 °C 29.87in /  1011.4hPa Calm   3.0mph /  4.8km/h 65% 0.00in /  0mm
08:24 68.5 °F /  20.3 °C 56.7 °F /  13.7 °C 29.87in /  1011.4hPa ENE 1.0mph /  1.6km/h 3.0mph /  4.8km/h 66% 0.00in /  0mm
08:29 68.4 °F /  20.2 °C 56.2 °F /  13.4 °C 29.87in /  1011.4hPa Calm   3.0mph /  4.8km/h 65% 0.00in /  0mm
08:34 68.7 °F /  20.4 °C 57.3 °F /  14.1 °C 29.87in /  1011.4hPa ENE 1.0mph /  1.6km/h 3.0mph /  4.8km/h 67% 0.00in /  0mm
08:39 69.4 °F /  20.8 °C 57.5 °F /  14.2 °C 29.87in /  1011.4hPa Calm   3.0mph /  4.8km/h 66% 0.00in /  0mm
08:44 70.6 °F /  21.4 °C 59.1 °F /  15.1 °C 29.86in /  1011.1hPa ENE 1.0mph /  1.6km/h 2.0mph /  3.2km/h 67% 0.00in /  0mm
08:49 70.8 °F /  21.6 °C 58.0 °F /  14.4 °C 29.86in /  1011.1hPa ESE 1.0mph /  1.6km/h 3.0mph /  4.8km/h 64% 0.00in /  0mm
08:54 70.7 °F /  21.5 °C 58.4 °F /  14.7 °C 29.87in /  1011.4hPa ESE 1.0mph /  1.6km/h 2.0mph /  3.2km/h 65% 0.00in /  0mm
08:59 70.9 °F /  21.6 °C 58.5 °F /  14.7 °C 29.86in /  1011.1hPa ESE 1.0mph /  1.6km/h 2.0mph /  3.2km/h 65% 0.00in /  0mm
09:04 70.8 °F /  21.6 °C 58.9 °F /  14.9 °C 29.86in /  1011.1hPa ESE 1.0mph /  1.6km/h 3.0mph /  4.8km/h 66% 0.00in /  0mm
09:09 70.9 °F /  21.6 °C 59.0 °F /  15 °C 29.87in /  1011.4hPa Calm   3.0mph /  4.8km/h 66% 0.00in /  0mm
09:14 71.1 °F /  21.7 °C 59.2 °F /  15.1 °C 29.87in /  1011.4hPa SE 1.0mph /  1.6km/h 6.0mph /  9.7km/h 66% 0.00in /  0mm
09:19 71.0 °F /  21.7 °C 59.1 °F /  15.1 °C 29.87in /  1011.4hPa SSE 2.0mph /  3.2km/h 6.0mph /  9.7km/h 66% 0.00in /  0mm
09:24 71.1 °F /  21.7 °C 60.0 °F /  15.6 °C 29.87in /  1011.4hPa SSE 1.0mph /  1.6km/h 4.0mph /  6.4km/h 68% 0.00in /  0mm
09:29 71.1 °F /  21.7 °C 60.8 °F /  16 °C 29.87in /  1011.4hPa Calm   4.0mph /  6.4km/h 70% 0.00in /  0mm
09:34 71.3 °F /  21.8 °C 61.4 °F /  16.3 °C 29.87in /  1011.4hPa SSE 1.0mph /  1.6km/h 4.0mph /  6.4km/h 71% 0.00in /  0mm
09:39 71.5 °F /  21.9 °C 62.0 °F /  16.7 °C 29.87in /  1011.4hPa SW 1.0mph /  1.6km/h 4.0mph /  6.4km/h 72% 0.00in /  0mm
09:44 71.6 °F /  22 °C 62.1 °F /  16.7 °C 29.88in /  1011.7hPa WSW 3.0mph /  4.8km/h 3.0mph /  4.8km/h 72% 0.00in /  0mm
09:49 71.5 °F /  21.9 °C 62.8 °F /  17.1 °C 29.88in /  1011.7hPa Calm   6.0mph /  9.7km/h 74% 0.00in /  0mm
09:54 70.9 °F /  21.6 °C 63.0 °F /  17.2 °C 29.89in /  1012.1hPa WSW 1.0mph /  1.6km/h 7.0mph /  11.3km/h 76% 0.00in /  0mm
09:59 70.3 °F /  21.3 °C 63.1 °F /  17.3 °C 29.88in /  1011.7hPa Calm   3.0mph /  4.8km/h 78% 0.01in /  0.25mm
10:04 69.7 °F /  20.9 °C 62.9 °F /  17.2 °C 29.88in /  1011.7hPa Calm   3.0mph /  4.8km/h 79% 0.01in /  0.25mm
10:09 69.2 °F /  20.7 °C 63.5 °F /  17.5 °C 29.88in /  1011.7hPa Calm   2.0mph /  3.2km/h 82% 0.04in /  1.02mm
10:14 68.6 °F /  20.3 °C 63.2 °F /  17.3 °C 29.88in /  1011.7hPa Calm   2.0mph /  3.2km/h 83% 0.05in /  1.27mm
10:19 68.2 °F /  20.1 °C 63.2 °F /  17.3 °C 29.87in /  1011.4hPa Calm     84% 0.07in /  1.78mm
10:24 68.2 °F /  20.1 °C 63.5 °F /  17.5 °C 29.86in /  1011.1hPa Calm     85% 0.08in /  2.03mm
10:29 68.2 °F /  20.1 °C 63.9 °F /  17.7 °C 29.86in /  1011.1hPa Calm     86% 0.08in /  2.03mm
10:34 68.5 °F /  20.3 °C 64.8 °F /  18.2 °C 29.87in /  1011.4hPa Calm     88% 0.08in /  2.03mm
10:39 69.1 °F /  20.6 °C 65.4 °F /  18.6 °C 29.87in /  1011.4hPa Calm     88% 0.08in /  2.03mm
10:44 69.8 °F /  21 °C 66.1 °F /  18.9 °C 29.86in /  1011.1hPa Calm     88% 0.09in /  2.29mm
10:49 70.7 °F /  21.5 °C 67.0 °F /  19.4 °C 29.86in /  1011.1hPa Calm   2.0mph /  3.2km/h 88% 0.09in /  2.29mm
10:54 71.1 °F /  21.7 °C 67.0 °F /  19.4 °C 29.86in /  1011.1hPa Calm   3.0mph /  4.8km/h 87% 0.09in /  2.29mm
10:59 71.4 °F /  21.9 °C 67.3 °F /  19.6 °C 29.86in /  1011.1hPa SSE 2.0mph /  3.2km/h 3.0mph /  4.8km/h 87% 0.08in /  2.03mm
11:04 71.6 °F /  22 °C 67.2 °F /  19.6 °C 29.85in /  1010.7hPa SSE 1.0mph /  1.6km/h 3.0mph /  4.8km/h 86% 0.08in /  2.03mm
11:09 72.1 °F /  22.3 °C 67.7 °F /  19.8 °C 29.86in /  1011.1hPa South 1.0mph /  1.6km/h 3.0mph /  4.8km/h 86% 0.05in /  1.27mm
11:14 74.0 °F /  23.3 °C 68.9 °F /  20.5 °C 29.85in /  1010.7hPa South 1.0mph /  1.6km/h 3.0mph /  4.8km/h 84% 0.04in /  1.02mm
11:19 75.1 °F /  23.9 °C 69.2 °F /  20.7 °C 29.85in /  1010.7hPa SW 1.0mph /  1.6km/h 3.0mph /  4.8km/h 82% 0.02in /  0.51mm
11:24 75.9 °F /  24.4 °C 68.9 °F /  20.5 °C 29.85in /  1010.7hPa SSE 3.0mph /  4.8km/h 6.0mph /  9.7km/h 79% 0.01in /  0.25mm
11:29 76.7 °F /  24.8 °C 69.3 °F /  20.7 °C 29.85in /  1010.7hPa SSE 3.0mph /  4.8km/h 5.0mph /  8km/h 78% 0.01in /  0.25mm
11:34 76.7 °F /  24.8 °C 68.2 °F /  20.1 °C 29.85in /  1010.7hPa WSW 2.0mph /  3.2km/h 6.0mph /  9.7km/h 75% 0.01in /  0.25mm
11:39 77.4 °F /  25.2 °C 69.2 °F /  20.7 °C 29.85in /  1010.7hPa SSW 4.0mph /  6.4km/h 8.0mph /  12.9km/h 76% 0.01in /  0.25mm
11:44 77.9 °F /  25.5 °C 69.7 °F /  20.9 °C 29.85in /  1010.7hPa SSW 3.0mph /  4.8km/h 8.0mph /  12.9km/h 76% 0.00in /  0mm
11:49 78.3 °F /  25.7 °C 69.7 °F /  20.9 °C 29.85in /  1010.7hPa SW 3.0mph /  4.8km/h 8.0mph /  12.9km/h 75% 0.00in /  0mm
11:54 79.4 °F /  26.3 °C 70.4 °F /  21.3 °C 29.85in /  1010.7hPa SSW 3.0mph /  4.8km/h 8.0mph /  12.9km/h 74% 0.00in /  0mm
11:59 80.1 °F /  26.7 °C 71.1 °F /  21.7 °C 29.85in /  1010.7hPa SW 2.0mph /  3.2km/h 6.0mph /  9.7km/h 74% 0.00in /  0mm
12:04 80.6 °F /  27 °C 70.7 °F /  21.5 °C 29.85in /  1010.7hPa SSW 5.0mph /  8km/h 7.0mph /  11.3km/h 72% 0.00in /  0mm
12:09 80.5 °F /  26.9 °C 70.2 °F /  21.2 °C 29.85in /  1010.7hPa SSW 1.0mph /  1.6km/h 6.0mph /  9.7km/h 71% 0.00in /  0mm
12:14 81.7 °F /  27.6 °C 71.0 °F /  21.7 °C 29.84in /  1010.4hPa SW 5.0mph /  8km/h 7.0mph /  11.3km/h 70% 0.00in /  0mm
12:19 81.3 °F /  27.4 °C 69.7 °F /  20.9 °C 29.84in /  1010.4hPa SW 5.0mph /  8km/h 10.0mph /  16.1km/h 68% 0.00in /  0mm
12:24 81.1 °F /  27.3 °C 69.1 °F /  20.6 °C 29.84in /  1010.4hPa West 1.0mph /  1.6km/h 11.0mph /  17.7km/h 67% 0.00in /  0mm
12:29 82.4 °F /  28 °C 69.0 °F /  20.6 °C 29.84in /  1010.4hPa West 8.0mph /  12.9km/h 10.0mph /  16.1km/h 64% 0.00in /  0mm
12:34 82.2 °F /  27.9 °C 68.3 °F /  20.2 °C 29.84in /  1010.4hPa SSW 9.0mph /  14.5km/h 12.0mph /  19.3km/h 63% 0.00in /  0mm
12:39 81.4 °F /  27.4 °C 68.1 °F /  20.1 °C 29.84in /  1010.4hPa WSW 6.0mph /  9.7km/h 13.0mph /  20.9km/h 64% 0.00in /  0mm
12:44 81.0 °F /  27.2 °C 68.6 °F /  20.3 °C 29.83in /  1010hPa SW 6.0mph /  9.7km/h 13.0mph /  20.9km/h 66% 0.00in /  0mm
12:49 81.4 °F /  27.4 °C 68.9 °F /  20.5 °C 29.83in /  1010hPa WSW 6.0mph /  9.7km/h 12.0mph /  19.3km/h 66% 0.00in /  0mm
12:54 82.2 °F /  27.9 °C 69.7 °F /  20.9 °C 29.83in /  1010hPa WSW 5.0mph /  8km/h 12.0mph /  19.3km/h 66% 0.00in /  0mm
12:59 82.0 °F /  27.8 °C 69.1 °F /  20.6 °C 29.83in /  1010hPa West 6.0mph /  9.7km/h 12.0mph /  19.3km/h 65% 0.00in /  0mm
13:04 82.2 °F /  27.9 °C 69.3 °F /  20.7 °C 29.83in /  1010hPa West 6.0mph /  9.7km/h 12.0mph /  19.3km/h 65% 0.00in /  0mm
13:09 82.3 °F /  27.9 °C 68.9 °F /  20.5 °C 29.83in /  1010hPa West 2.0mph /  3.2km/h 10.0mph /  16.1km/h 64% 0.00in /  0mm
13:14 81.8 °F /  27.7 °C 69.3 °F /  20.7 °C 29.83in /  1010hPa WSW 7.0mph /  11.3km/h 10.0mph /  16.1km/h 66% 0.00in /  0mm
13:19 81.1 °F /  27.3 °C 69.1 °F /  20.6 °C 29.83in /  1010hPa West 9.0mph /  14.5km/h 13.0mph /  20.9km/h 67% 0.00in /  0mm
13:24 81.8 °F /  27.7 °C 68.9 °F /  20.5 °C 29.83in /  1010hPa West 3.0mph /  4.8km/h 11.0mph /  17.7km/h 65% 0.00in /  0mm
13:29 82.2 °F /  27.9 °C 69.7 °F /  20.9 °C 29.82in /  1009.7hPa SW 4.0mph /  6.4km/h 10.0mph /  16.1km/h 66% 0.00in /  0mm
13:34 82.1 °F /  27.8 °C 68.7 °F /  20.4 °C 29.83in /  1010hPa WSW 5.0mph /  8km/h 10.0mph /  16.1km/h 64% 0.00in /  0mm
13:39 81.8 °F /  27.7 °C 68.4 °F /  20.2 °C 29.83in /  1010hPa WSW 5.0mph /  8km/h 10.0mph /  16.1km/h 64% 0.00in /  0mm
13:44 82.2 °F /  27.9 °C 69.3 °F /  20.7 °C 29.83in /  1010hPa West 5.0mph /  8km/h 13.0mph /  20.9km/h 65% 0.00in /  0mm
13:49 82.2 °F /  27.9 °C 68.3 °F /  20.2 °C 29.83in /  1010hPa WSW 6.0mph /  9.7km/h 13.0mph /  20.9km/h 63% 0.00in /  0mm
13:54 81.7 °F /  27.6 °C 67.9 °F /  19.9 °C 29.82in /  1009.7hPa WSW 6.0mph /  9.7km/h 14.0mph /  22.5km/h 63% 0.00in /  0mm
13:59 81.2 °F /  27.3 °C 68.8 °F /  20.4 °C 29.82in /  1009.7hPa WSW 7.0mph /  11.3km/h 14.0mph /  22.5km/h 66% 0.00in /  0mm
14:04 81.7 °F /  27.6 °C 67.9 °F /  19.9 °C 29.82in /  1009.7hPa WSW 6.0mph /  9.7km/h 13.0mph /  20.9km/h 63% 0.00in /  0mm
14:09 81.6 °F /  27.6 °C 67.8 °F /  19.9 °C 29.82in /  1009.7hPa WSW 6.0mph /  9.7km/h 13.0mph /  20.9km/h 63% 0.00in /  0mm
14:14 82.3 °F /  27.9 °C 68.4 °F /  20.2 °C 29.82in /  1009.7hPa WSW 7.0mph /  11.3km/h 10.0mph /  16.1km/h 63% 0.00in /  0mm
14:19 82.0 °F /  27.8 °C 68.2 °F /  20.1 °C 29.82in /  1009.7hPa SW 6.0mph /  9.7km/h 13.0mph /  20.9km/h 63% 0.00in /  0mm
14:24 81.7 °F /  27.6 °C 68.3 °F /  20.2 °C 29.82in /  1009.7hPa West 7.0mph /  11.3km/h 11.0mph /  17.7km/h 64% 0.00in /  0mm
14:29 81.7 °F /  27.6 °C 68.3 °F /  20.2 °C 29.82in /  1009.7hPa SW 5.0mph /  8km/h 11.0mph /  17.7km/h 64% 0.00in /  0mm
14:34 81.5 °F /  27.5 °C 67.7 °F /  19.8 °C 29.82in /  1009.7hPa WNW 6.0mph /  9.7km/h 11.0mph /  17.7km/h 63% 0.00in /  0mm
14:39 81.9 °F /  27.7 °C 68.5 °F /  20.3 °C 29.82in /  1009.7hPa WSW 6.0mph /  9.7km/h 11.0mph /  17.7km/h 64% 0.00in /  0mm
14:44 81.4 °F /  27.4 °C 68.1 °F /  20.1 °C 29.81in /  1009.4hPa WSW 6.0mph /  9.7km/h 13.0mph /  20.9km/h 64% 0.00in /  0mm
14:49 81.6 °F /  27.6 °C 68.7 °F /  20.4 °C 29.81in /  1009.4hPa WSW 6.0mph /  9.7km/h 13.0mph /  20.9km/h 65% 0.00in /  0mm
14:54 82.0 °F /  27.8 °C 67.7 °F /  19.8 °C 29.81in /  1009.4hPa WSW 5.0mph /  8km/h 10.0mph /  16.1km/h 62% 0.00in /  0mm
14:59 81.2 °F /  27.3 °C 67.9 °F /  19.9 °C 29.80in /  1009hPa SW 4.0mph /  6.4km/h 10.0mph /  16.1km/h 64% 0.00in /  0mm
15:04 81.4 °F /  27.4 °C 68.5 °F /  20.3 °C 29.80in /  1009hPa West 6.0mph /  9.7km/h 9.0mph /  14.5km/h 65% 0.00in /  0mm
15:09 81.4 °F /  27.4 °C 68.1 °F /  20.1 °C 29.80in /  1009hPa West 6.0mph /  9.7km/h 10.0mph /  16.1km/h 64% 0.00in /  0mm
15:14 80.7 °F /  27.1 °C 67.4 °F /  19.7 °C 29.80in /  1009hPa WSW 5.0mph /  8km/h 12.0mph /  19.3km/h 64% 0.00in /  0mm
15:19 81.1 °F /  27.3 °C 68.2 °F /  20.1 °C 29.80in /  1009hPa WSW 5.0mph /  8km/h 12.0mph /  19.3km/h 65% 0.00in /  0mm
15:24 81.3 °F /  27.4 °C 68.0 °F /  20 °C 29.80in /  1009hPa WSW 5.0mph /  8km/h 9.0mph /  14.5km/h 64% 0.00in /  0mm
15:29 80.9 °F /  27.2 °C 68.0 °F /  20 °C 29.80in /  1009hPa SW 5.0mph /  8km/h 11.0mph /  17.7km/h 65% 0.00in /  0mm
15:34 80.7 °F /  27.1 °C 67.8 °F /  19.9 °C 29.80in /  1009hPa West 2.0mph /  3.2km/h 14.0mph /  22.5km/h 65% 0.00in /  0mm
15:39 80.7 °F /  27.1 °C 67.8 °F /  19.9 °C 29.80in /  1009hPa SW 4.0mph /  6.4km/h 8.0mph /  12.9km/h 65% 0.00in /  0mm
15:44 81.3 °F /  27.4 °C 68.9 °F /  20.5 °C 29.80in /  1009hPa WSW 4.0mph /  6.4km/h 9.0mph /  14.5km/h 66% 0.00in /  0mm
15:49 81.1 °F /  27.3 °C 68.7 °F /  20.4 °C 29.79in /  1008.7hPa WSW 4.0mph /  6.4km/h 9.0mph /  14.5km/h 66% 0.00in /  0mm
15:54 81.9 °F /  27.7 °C 68.5 °F /  20.3 °C 29.79in /  1008.7hPa WSW 3.0mph /  4.8km/h 8.0mph /  12.9km/h 64% 0.00in /  0mm
15:59 81.4 °F /  27.4 °C 67.6 °F /  19.8 °C 29.79in /  1008.7hPa WNW 4.0mph /  6.4km/h 11.0mph /  17.7km/h 63% 0.00in /  0mm
16:04 81.7 °F /  27.6 °C 67.9 °F /  19.9 °C 29.79in /  1008.7hPa SW 6.0mph /  9.7km/h 11.0mph /  17.7km/h 63% 0.00in /  0mm
16:09 81.7 °F /  27.6 °C 68.8 °F /  20.4 °C 29.78in /  1008.4hPa WSW 5.0mph /  8km/h 10.0mph /  16.1km/h 65% 0.00in /  0mm
16:14 80.7 °F /  27.1 °C 67.4 °F /  19.7 °C 29.78in /  1008.4hPa WSW 5.0mph /  8km/h 10.0mph /  16.1km/h 64% 0.00in /  0mm
16:19 80.5 °F /  26.9 °C 67.6 °F /  19.8 °C 29.78in /  1008.4hPa WSW 5.0mph /  8km/h 10.0mph /  16.1km/h 65% 0.00in /  0mm
16:24 80.8 °F /  27.1 °C 67.9 °F /  19.9 °C 29.77in /  1008hPa WSW 4.0mph /  6.4km/h 10.0mph /  16.1km/h 65% 0.00in /  0mm
16:29 81.3 °F /  27.4 °C 68.4 °F /  20.2 °C 29.78in /  1008.4hPa West 4.0mph /  6.4km/h 9.0mph /  14.5km/h 65% 0.00in /  0mm
16:34 81.0 °F /  27.2 °C 68.1 °F /  20.1 °C 29.77in /  1008hPa West 5.0mph /  8km/h 9.0mph /  14.5km/h 65% 0.00in /  0mm
16:39 79.6 °F /  26.4 °C 66.8 °F /  19.3 °C 29.78in /  1008.4hPa West 3.0mph /  4.8km/h 10.0mph /  16.1km/h 65% 0.00in /  0mm
16:44 79.0 °F /  26.1 °C 67.1 °F /  19.5 °C 29.78in /  1008.4hPa WSW 5.0mph /  8km/h 10.0mph /  16.1km/h 67% 0.00in /  0mm
16:49 78.8 °F /  26 °C 68.2 °F /  20.1 °C 29.77in /  1008hPa South 5.0mph /  8km/h 9.0mph /  14.5km/h 70% 0.00in /  0mm
16:54 79.4 °F /  26.3 °C 67.9 °F /  19.9 °C 29.78in /  1008.4hPa SW 5.0mph /  8km/h 8.0mph /  12.9km/h 68% 0.00in /  0mm
16:59 79.2 °F /  26.2 °C 67.7 °F /  19.8 °C 29.78in /  1008.4hPa WSW 3.0mph /  4.8km/h 9.0mph /  14.5km/h 68% 0.00in /  0mm
17:04 78.7 °F /  25.9 °C 67.2 °F /  19.6 °C 29.77in /  1008hPa WSW 7.0mph /  11.3km/h 10.0mph /  16.1km/h 68% 0.00in /  0mm
17:09 77.5 °F /  25.3 °C 66.9 °F /  19.4 °C 29.77in /  1008hPa North 5.0mph /  8km/h 11.0mph /  17.7km/h 70% 0.00in /  0mm
17:14 77.2 °F /  25.1 °C 67.5 °F /  19.7 °C 29.77in /  1008hPa SW 6.0mph /  9.7km/h 11.0mph /  17.7km/h 72% 0.00in /  0mm
17:19 76.3 °F /  24.6 °C 66.6 °F /  19.2 °C 29.77in /  1008hPa SW 5.0mph /  8km/h 11.0mph /  17.7km/h 72% 0.00in /  0mm
17:24 75.6 °F /  24.2 °C 66.7 °F /  19.3 °C 29.78in /  1008.4hPa SW 5.0mph /  8km/h 11.0mph /  17.7km/h 74% 0.00in /  0mm
17:29 75.1 °F /  23.9 °C 66.6 °F /  19.2 °C 29.78in /  1008.4hPa SW 4.0mph /  6.4km/h 9.0mph /  14.5km/h 75% 0.00in /  0mm
17:34 75.1 °F /  23.9 °C 66.6 °F /  19.2 °C 29.78in /  1008.4hPa WSW 5.0mph /  8km/h 9.0mph /  14.5km/h 75% 0.00in /  0mm
17:39 75.0 °F /  23.9 °C 66.5 °F /  19.2 °C 29.78in /  1008.4hPa South 6.0mph /  9.7km/h 10.0mph /  16.1km/h 75% 0.00in /  0mm
17:44 74.7 °F /  23.7 °C 66.6 °F /  19.2 °C 29.78in /  1008.4hPa WSW 4.0mph /  6.4km/h 10.0mph /  16.1km/h 76% 0.00in /  0mm
17:49 74.2 °F /  23.4 °C 66.1 °F /  18.9 °C 29.78in /  1008.4hPa SW 7.0mph /  11.3km/h 8.0mph /  12.9km/h 76% 0.00in /  0mm
17:54 74.0 °F /  23.3 °C 66.3 °F /  19.1 °C 29.78in /  1008.4hPa West 4.0mph /  6.4km/h 8.0mph /  12.9km/h 77% 0.00in /  0mm
17:59 73.8 °F /  23.2 °C 66.1 °F /  18.9 °C 29.78in /  1008.4hPa SW 4.0mph /  6.4km/h 9.0mph /  14.5km/h 77% 0.00in /  0mm
18:04 74.0 °F /  23.3 °C 66.3 °F /  19.1 °C 29.78in /  1008.4hPa WSW 4.0mph /  6.4km/h 7.0mph /  11.3km/h 77% 0.00in /  0mm
18:09 74.0 °F /  23.3 °C 66.0 °F /  18.9 °C 29.78in /  1008.4hPa WSW 1.0mph /  1.6km/h 7.0mph /  11.3km/h 76% 0.00in /  0mm
18:14 74.0 °F /  23.3 °C 66.0 °F /  18.9 °C 29.78in /  1008.4hPa SW 4.0mph /  6.4km/h 8.0mph /  12.9km/h 76% 0.00in /  0mm
18:19 74.0 °F /  23.3 °C 66.0 °F /  18.9 °C 29.79in /  1008.7hPa SW 4.0mph /  6.4km/h 10.0mph /  16.1km/h 76% 0.00in /  0mm
18:24 74.0 °F /  23.3 °C 66.0 °F /  18.9 °C 29.79in /  1008.7hPa SW 4.0mph /  6.4km/h 10.0mph /  16.1km/h 76% 0.00in /  0mm
18:29 73.9 °F /  23.3 °C 65.9 °F /  18.8 °C 29.79in /  1008.7hPa SW 4.0mph /  6.4km/h 7.0mph /  11.3km/h 76% 0.00in /  0mm
18:34 73.6 °F /  23.1 °C 65.9 °F /  18.8 °C 29.79in /  1008.7hPa WSW 5.0mph /  8km/h 8.0mph /  12.9km/h 77% 0.00in /  0mm
18:39 73.1 °F /  22.8 °C 65.5 °F /  18.6 °C 29.79in /  1008.7hPa SW 2.0mph /  3.2km/h 10.0mph /  16.1km/h 77% 0.00in /  0mm
18:44 73.0 °F /  22.8 °C 65.4 °F /  18.6 °C 29.79in /  1008.7hPa SW 4.0mph /  6.4km/h 10.0mph /  16.1km/h 77% 0.00in /  0mm
18:49 73.1 °F /  22.8 °C 65.5 °F /  18.6 °C 29.79in /  1008.7hPa SW 4.0mph /  6.4km/h 10.0mph /  16.1km/h 77% 0.00in /  0mm
18:54 73.0 °F /  22.8 °C 65.7 °F /  18.7 °C 29.79in /  1008.7hPa SSW 4.0mph /  6.4km/h 10.0mph /  16.1km/h 78% 0.00in /  0mm
18:59 73.1 °F /  22.8 °C 65.5 °F /  18.6 °C 29.78in /  1008.4hPa SSW 3.0mph /  4.8km/h 8.0mph /  12.9km/h 77% 0.00in /  0mm
19:04 73.2 °F /  22.9 °C 65.6 °F /  18.7 °C 29.78in /  1008.4hPa SW 3.0mph /  4.8km/h 7.0mph /  11.3km/h 77% 0.00in /  0mm
19:09 73.3 °F /  22.9 °C 65.7 °F /  18.7 °C 29.78in /  1008.4hPa SW 6.0mph /  9.7km/h 8.0mph /  12.9km/h 77% 0.00in /  0mm
19:14 73.4 °F /  23 °C 65.0 °F /  18.3 °C 29.78in /  1008.4hPa SSW 3.0mph /  4.8km/h 8.0mph /  12.9km/h 75% 0.00in /  0mm
19:19 73.7 °F /  23.2 °C 65.3 °F /  18.5 °C 29.78in /  1008.4hPa SSW 3.0mph /  4.8km/h 6.0mph /  9.7km/h 75% 0.00in /  0mm
19:24 73.9 °F /  23.3 °C 65.1 °F /  18.4 °C 29.78in /  1008.4hPa SW 3.0mph /  4.8km/h 4.0mph /  6.4km/h 74% 0.00in /  0mm
19:29 74.3 °F /  23.5 °C 65.5 °F /  18.6 °C 29.78in /  1008.4hPa WSW 4.0mph /  6.4km/h 5.0mph /  8km/h 74% 0.00in /  0mm
19:34 74.5 °F /  23.6 °C 65.7 °F /  18.7 °C 29.78in /  1008.4hPa WSW 3.0mph /  4.8km/h 4.0mph /  6.4km/h 74% 0.00in /  0mm
19:39 74.6 °F /  23.7 °C 65.4 °F /  18.6 °C 29.78in /  1008.4hPa West 1.0mph /  1.6km/h 6.0mph /  9.7km/h 73% 0.00in /  0mm
19:44 74.6 °F /  23.7 °C 65.4 °F /  18.6 °C 29.78in /  1008.4hPa SW 2.0mph /  3.2km/h 6.0mph /  9.7km/h 73% 0.00in /  0mm
19:49 74.8 °F /  23.8 °C 65.6 °F /  18.7 °C 29.78in /  1008.4hPa SW 2.0mph /  3.2km/h 5.0mph /  8km/h 73% 0.00in /  0mm
19:54 74.9 °F /  23.8 °C 65.3 °F /  18.5 °C 29.79in /  1008.7hPa WSW 2.0mph /  3.2km/h 7.0mph /  11.3km/h 72% 0.00in /  0mm
19:59 74.8 °F /  23.8 °C 65.2 °F /  18.4 °C 29.79in /  1008.7hPa West 4.0mph /  6.4km/h 8.0mph /  12.9km/h 72% 0.00in /  0mm
20:04 74.5 °F /  23.6 °C 65.3 °F /  18.5 °C 29.79in /  1008.7hPa WSW 3.0mph /  4.8km/h 6.0mph /  9.7km/h 73% 0.00in /  0mm
20:09 74.3 °F /  23.5 °C 65.1 °F /  18.4 °C 29.79in /  1008.7hPa SW 4.0mph /  6.4km/h 7.0mph /  11.3km/h 73% 0.00in /  0mm
20:14 74.3 °F /  23.5 °C 65.5 °F /  18.6 °C 29.79in /  1008.7hPa WSW 4.0mph /  6.4km/h 7.0mph /  11.3km/h 74% 0.00in /  0mm
20:19 74.0 °F /  23.3 °C 65.2 °F /  18.4 °C 29.79in /  1008.7hPa SW 5.0mph /  8km/h 9.0mph /  14.5km/h 74% 0.00in /  0mm
20:24 73.9 °F /  23.3 °C 65.1 °F /  18.4 °C 29.79in /  1008.7hPa SW 4.0mph /  6.4km/h 7.0mph /  11.3km/h 74% 0.00in /  0mm
20:29 73.8 °F /  23.2 °C 65.0 °F /  18.3 °C 29.79in /  1008.7hPa SSW 2.0mph /  3.2km/h 7.0mph /  11.3km/h 74% 0.00in /  0mm
20:34 73.7 °F /  23.2 °C 65.3 °F /  18.5 °C 29.79in /  1008.7hPa SSW 3.0mph /  4.8km/h 6.0mph /  9.7km/h 75% 0.00in /  0mm
20:39 73.8 °F /  23.2 °C 65.4 °F /  18.6 °C 29.79in /  1008.7hPa WSW 3.0mph /  4.8km/h 6.0mph /  9.7km/h 75% 0.00in /  0mm
20:44 73.6 °F /  23.1 °C 64.8 °F /  18.2 °C 29.79in /  1008.7hPa SW 3.0mph /  4.8km/h 7.0mph /  11.3km/h 74% 0.00in /  0mm
20:49 73.6 °F /  23.1 °C 65.2 °F /  18.4 °C 29.79in /  1008.7hPa SW 4.0mph /  6.4km/h 7.0mph /  11.3km/h 75% 0.00in /  0mm
20:54 73.5 °F /  23.1 °C 65.1 °F /  18.4 °C 29.79in /  1008.7hPa WSW 4.0mph /  6.4km/h 7.0mph /  11.3km/h 75% 0.00in /  0mm
20:59 73.4 °F /  23 °C 65.0 °F /  18.3 °C 29.79in /  1008.7hPa SW 3.0mph /  4.8km/h 8.0mph /  12.9km/h 75% 0.00in /  0mm
21:04 73.2 °F /  22.9 °C 65.2 °F /  18.4 °C 29.79in /  1008.7hPa WSW 4.0mph /  6.4km/h 7.0mph /  11.3km/h 76% 0.00in /  0mm
21:09 72.8 °F /  22.7 °C 65.2 °F /  18.4 °C 29.79in /  1008.7hPa West 4.0mph /  6.4km/h 6.0mph /  9.7km/h 77% 0.00in /  0mm
21:14 72.4 °F /  22.4 °C 64.8 °F /  18.2 °C 29.80in /  1009hPa WSW 3.0mph /  4.8km/h 6.0mph /  9.7km/h 77% 0.00in /  0mm
21:19 72.0 °F /  22.2 °C 64.8 °F /  18.2 °C 29.80in /  1009hPa WSW 3.0mph /  4.8km/h 6.0mph /  9.7km/h 78% 0.00in /  0mm
21:24 71.7 °F /  22.1 °C 64.5 °F /  18.1 °C 29.80in /  1009hPa WSW 3.0mph /  4.8km/h 7.0mph /  11.3km/h 78% 0.00in /  0mm
21:29 71.5 °F /  21.9 °C 64.6 °F /  18.1 °C 29.80in /  1009hPa SW 2.0mph /  3.2km/h 6.0mph /  9.7km/h 79% 0.00in /  0mm
21:34 71.4 °F /  21.9 °C 64.9 °F /  18.3 °C 29.80in /  1009hPa WSW 3.0mph /  4.8km/h 6.0mph /  9.7km/h 80% 0.00in /  0mm
21:39 71.4 °F /  21.9 °C 64.9 °F /  18.3 °C 29.80in /  1009hPa WSW 2.0mph /  3.2km/h 5.0mph /  8km/h 80% 0.00in /  0mm
21:44 71.5 °F /  21.9 °C 65.0 °F /  18.3 °C 29.81in /  1009.4hPa SW 2.0mph /  3.2km/h 6.0mph /  9.7km/h 80% 0.00in /  0mm
21:49 71.5 °F /  21.9 °C 64.6 °F /  18.1 °C 29.80in /  1009hPa SW 2.0mph /  3.2km/h 7.0mph /  11.3km/h 79% 0.00in /  0mm
21:54 71.6 °F /  22 °C 64.7 °F /  18.2 °C 29.80in /  1009hPa SW 3.0mph /  4.8km/h 7.0mph /  11.3km/h 79% 0.00in /  0mm
21:59 71.6 °F /  22 °C 64.7 °F /  18.2 °C 29.81in /  1009.4hPa WSW 4.0mph /  6.4km/h 10.0mph /  16.1km/h 79% 0.00in /  0mm
22:04 71.5 °F /  21.9 °C 64.6 °F /  18.1 °C 29.81in /  1009.4hPa WSW 2.0mph /  3.2km/h 4.0mph /  6.4km/h 79% 0.00in /  0mm
22:09 71.3 °F /  21.8 °C 64.8 °F /  18.2 °C 29.81in /  1009.4hPa SW 2.0mph /  3.2km/h 7.0mph /  11.3km/h 80% 0.00in /  0mm
22:14 71.1 °F /  21.7 °C 65.0 °F /  18.3 °C 29.81in /  1009.4hPa SW 3.0mph /  4.8km/h 7.0mph /  11.3km/h 81% 0.00in /  0mm
22:19 70.9 °F /  21.6 °C 64.8 °F /  18.2 °C 29.81in /  1009.4hPa SW 3.0mph /  4.8km/h 5.0mph /  8km/h 81% 0.00in /  0mm
22:24 70.7 °F /  21.5 °C 64.9 °F /  18.3 °C 29.80in /  1009hPa WSW 3.0mph /  4.8km/h 6.0mph /  9.7km/h 82% 0.00in /  0mm
22:29 70.6 °F /  21.4 °C 64.8 °F /  18.2 °C 29.80in /  1009hPa SW 3.0mph /  4.8km/h 6.0mph /  9.7km/h 82% 0.00in /  0mm
22:34 70.4 °F /  21.3 °C 65.0 °F /  18.3 °C 29.81in /  1009.4hPa SW 3.0mph /  4.8km/h 10.0mph /  16.1km/h 83% 0.00in /  0mm
22:39 70.3 °F /  21.3 °C 64.9 °F /  18.3 °C 29.81in /  1009.4hPa SW 4.0mph /  6.4km/h 7.0mph /  11.3km/h 83% 0.00in /  0mm
22:44 70.2 °F /  21.2 °C 64.8 °F /  18.2 °C 29.81in /  1009.4hPa SW 3.0mph /  4.8km/h 7.0mph /  11.3km/h 83% 0.00in /  0mm
22:49 70.1 °F /  21.2 °C 65.0 °F /  18.3 °C 29.81in /  1009.4hPa SW 3.0mph /  4.8km/h 6.0mph /  9.7km/h 84% 0.00in /  0mm
22:54 70.0 °F /  21.1 °C 64.9 °F /  18.3 °C 29.81in /  1009.4hPa SW 4.0mph /  6.4km/h 7.0mph /  11.3km/h 84% 0.00in /  0mm
22:59 70.0 °F /  21.1 °C 64.9 °F /  18.3 °C 29.81in /  1009.4hPa SW 2.0mph /  3.2km/h 6.0mph /  9.7km/h 84% 0.00in /  0mm
23:04 69.9 °F /  21.1 °C 64.8 °F /  18.2 °C 29.80in /  1009hPa SW 7.0mph /  11.3km/h 7.0mph /  11.3km/h 84% 0.00in /  0mm
23:09 69.8 °F /  21 °C 64.7 °F /  18.2 °C 29.80in /  1009hPa SSW 3.0mph /  4.8km/h 6.0mph /  9.7km/h 84% 0.00in /  0mm
23:14 69.7 °F /  20.9 °C 64.6 °F /  18.1 °C 29.80in /  1009hPa SW 3.0mph /  4.8km/h 7.0mph /  11.3km/h 84% 0.00in /  0mm
23:19 69.5 °F /  20.8 °C 64.8 °F /  18.2 °C 29.80in /  1009hPa SW 2.0mph /  3.2km/h 6.0mph /  9.7km/h 85% 0.00in /  0mm
23:24 69.4 °F /  20.8 °C 64.7 °F /  18.2 °C 29.80in /  1009hPa SW 2.0mph /  3.2km/h 6.0mph /  9.7km/h 85% 0.00in /  0mm
23:29 69.3 °F /  20.7 °C 64.9 °F /  18.3 °C 29.80in /  1009hPa SW 2.0mph /  3.2km/h 5.0mph /  8km/h 86% 0.00in /  0mm
23:34 69.2 °F /  20.7 °C 64.8 °F /  18.2 °C 29.80in /  1009hPa SW 2.0mph /  3.2km/h 6.0mph /  9.7km/h 86% 0.00in /  0mm
23:39 69.1 °F /  20.6 °C 64.7 °F /  18.2 °C 29.80in /  1009hPa SW 3.0mph /  4.8km/h 6.0mph /  9.7km/h 86% 0.00in /  0mm
23:44 69.0 °F /  20.6 °C 64.6 °F /  18.1 °C 29.80in /  1009hPa SW 2.0mph /  3.2km/h 6.0mph /  9.7km/h 86% 0.00in /  0mm
23:49 68.8 °F /  20.4 °C 64.4 °F /  18 °C 29.81in /  1009.4hPa SSW 3.0mph /  4.8km/h 5.0mph /  8km/h 86% 0.00in /  0mm
23:54 68.8 °F /  20.4 °C 64.8 °F /  18.2 °C 29.80in /  1009hPa SW 2.0mph /  3.2km/h 4.0mph /  6.4km/h 87% 0.00in /  0mm
23:59 68.7 °F /  20.4 °C 64.7 °F /  18.2 °C 29.80in /  1009hPa SSW 1.0mph /  1.6km/h 6.0mph /  9.7km/h 87% 0.00in /  0mm
Buffalo, New York, USA
Compliments of Weather Underground - 2.5 mb